createdAt,value
2023-01-04T00:01:22.152Z,1.40
2023-01-04T00:03:49.692Z,1.23
2023-01-04T00:06:17.896Z,1.80
2023-01-04T00:08:45.140Z,1.52
2023-01-04T00:11:17.971Z,1.42
2023-01-04T00:13:46.355Z,1.65
2023-01-04T00:16:20.467Z,1.08
2023-01-04T00:18:48.709Z,3.00
2023-01-04T00:21:21.014Z,2.28
2023-01-04T00:23:51.037Z,1.42
2023-01-04T00:26:24.432Z,1.35
2023-01-04T00:29:03.924Z,1.50
2023-01-04T00:31:31.652Z,1.35
2023-01-04T00:34:01.463Z,1.48
2023-01-04T00:36:29.291Z,1.63
2023-01-04T00:39:08.805Z,1.73
2023-01-04T00:44:26.297Z,1.90
2023-01-04T00:46:53.829Z,1.65
2023-01-04T00:49:21.240Z,1.42
2023-01-04T00:51:49.926Z,1.58
2023-01-04T00:54:17.959Z,1.63
2023-01-04T00:56:45.330Z,1.30
2023-01-04T00:59:14.880Z,1.83
2023-01-04T01:01:42.993Z,1.50
2023-01-04T01:04:13.057Z,1.55
2023-01-04T01:06:40.877Z,1.42
2023-01-04T01:09:09.059Z,1.48
2023-01-04T01:11:38.247Z,1.48
2023-01-04T01:14:06.875Z,1.77
2023-01-04T01:19:21.467Z,1.27
2023-01-04T01:21:48.741Z,1.67
2023-01-04T01:24:18.187Z,1.50
2023-01-04T01:26:45.810Z,1.33
2023-01-04T01:29:13.196Z,1.30
2023-01-04T01:31:41.173Z,1.77
2023-01-04T01:34:08.766Z,1.40
2023-01-04T01:36:36.996Z,1.83
2023-01-04T01:39:05.503Z,1.90
2023-01-04T01:41:35.992Z,1.40
2023-01-04T01:44:07.248Z,1.67
2023-01-04T01:46:44.055Z,1.40
2023-01-04T01:49:34.744Z,1.85
2023-01-04T01:52:17.225Z,1.67
2023-01-04T01:55:11.857Z,1.92
2023-01-04T01:57:39.905Z,2.17
2023-01-04T02:00:13.626Z,1.63
2023-01-04T02:03:05.772Z,2.03
2023-01-04T02:05:34.235Z,1.60
2023-01-04T02:08:03.713Z,1.77
2023-01-04T02:10:31.738Z,2.28
2023-01-04T02:13:02.439Z,1.25
2023-01-04T02:15:40.572Z,1.30
2023-01-04T02:18:15.530Z,1.52
2023-01-04T02:20:44.724Z,2.20
2023-01-04T02:23:45.277Z,2.35
2023-01-04T02:26:24.638Z,1.20
2023-01-04T02:28:51.844Z,1.40
2023-01-04T02:31:33.497Z,1.40
2023-01-04T02:34:16.311Z,1.52
2023-01-04T02:36:52.657Z,1.55
2023-01-04T02:39:35.152Z,1.42
2023-01-04T02:42:45.879Z,1.30
2023-01-04T02:45:16.966Z,1.08
2023-01-04T02:48:03.220Z,1.40
2023-01-04T02:50:37.308Z,0.90
2023-01-04T02:53:18.345Z,0.90
2023-01-04T02:55:56.342Z,1.23
2023-01-04T02:58:56.829Z,1.00
2023-01-04T03:02:12.624Z,1.27
2023-01-04T03:05:26.510Z,1.35
2023-01-04T03:08:23.253Z,0.90
2023-01-04T03:11:27.819Z,0.90
2023-01-04T03:14:31.978Z,0.85
2023-01-04T03:16:57.097Z,1.00
2023-01-04T03:19:45.879Z,0.82
2023-01-04T03:22:35.432Z,0.60
2023-01-04T03:25:23.224Z,0.65
2023-01-04T03:28:10.582Z,0.80
2023-01-04T03:31:06.417Z,0.90
2023-01-04T03:33:52.214Z,1.08
2023-01-04T03:36:29.390Z,0.80
2023-01-04T03:39:33.309Z,0.70
2023-01-04T03:42:34.617Z,0.60
2023-01-04T03:45:23.650Z,0.75
2023-01-04T03:48:27.724Z,0.70
2023-01-04T03:51:04.038Z,1.02
2023-01-04T03:53:35.830Z,1.00
2023-01-04T03:56:03.691Z,0.85
2023-01-04T03:58:31.210Z,0.80
2023-01-04T04:01:03.454Z,0.68
2023-01-04T04:03:50.527Z,0.93
2023-01-04T04:06:36.240Z,0.70
2023-01-04T04:09:04.550Z,0.77
2023-01-04T04:11:31.859Z,0.65
2023-01-04T04:14:00.220Z,0.70
2023-01-04T04:16:28.134Z,0.70
2023-01-04T04:18:55.637Z,1.05
2023-01-04T04:21:23.151Z,0.70
2023-01-04T04:23:50.435Z,0.60
2023-01-04T04:26:17.998Z,0.70
2023-01-04T04:28:45.349Z,0.80
2023-01-04T04:31:13.438Z,0.77
2023-01-04T04:33:40.854Z,0.80
2023-01-04T04:36:08.801Z,0.70
2023-01-04T04:38:36.379Z,0.70
2023-01-04T04:41:27.239Z,0.55
2023-01-04T04:43:55.132Z,0.60
2023-01-04T04:46:22.515Z,0.80
2023-01-04T04:48:50.113Z,0.60
2023-01-04T04:51:17.790Z,0.60
2023-01-04T04:53:45.406Z,0.52
2023-01-04T04:56:15.667Z,0.60
2023-01-04T04:58:45.706Z,0.75
2023-01-04T05:01:13.126Z,0.60
2023-01-04T05:03:40.586Z,0.60
2023-01-04T05:06:07.950Z,0.70
2023-01-04T05:08:35.869Z,0.60
2023-01-04T05:11:10.858Z,0.70
2023-01-04T05:13:38.171Z,0.70
2023-01-04T05:16:06.905Z,0.63
2023-01-04T05:18:34.488Z,0.63
2023-01-04T05:21:02.606Z,0.70
2023-01-04T05:23:29.877Z,0.95
2023-01-04T05:26:00.968Z,0.70
2023-01-04T05:28:28.664Z,0.80
2023-01-04T05:30:57.120Z,0.60
2023-01-04T05:33:27.107Z,0.80
2023-01-04T05:35:56.457Z,0.80
2023-01-04T05:38:24.276Z,0.50
2023-01-04T05:40:51.970Z,0.68
2023-01-04T05:43:21.086Z,0.60
2023-01-04T05:45:51.929Z,0.60
2023-01-04T05:48:20.704Z,1.40
2023-01-04T05:50:48.362Z,0.60
2023-01-04T05:53:18.204Z,0.90
2023-01-04T05:55:47.739Z,0.70
2023-01-04T05:58:15.807Z,0.82
2023-01-04T06:00:43.135Z,0.70
2023-01-04T06:03:10.630Z,0.70
2023-01-04T06:05:38.120Z,0.70
2023-01-04T06:08:05.856Z,0.55
2023-01-04T06:10:33.142Z,0.93
2023-01-04T06:13:00.421Z,0.85
2023-01-04T06:15:27.652Z,0.75
2023-01-04T06:17:54.889Z,1.00
2023-01-04T06:20:22.120Z,0.70
2023-01-04T06:22:49.407Z,0.73
2023-01-04T06:25:17.289Z,0.50
2023-01-04T06:27:44.553Z,0.80
2023-01-04T06:30:12.104Z,0.63
2023-01-04T06:32:39.383Z,0.60
2023-01-04T06:35:06.895Z,0.77
2023-01-04T06:37:35.616Z,0.60
2023-01-04T06:40:03.497Z,0.80
2023-01-04T06:42:45.973Z,0.80
2023-01-04T06:45:14.652Z,0.73
2023-01-04T06:47:51.666Z,0.70
2023-01-04T06:50:18.929Z,0.68
2023-01-04T06:52:46.158Z,0.98
2023-01-04T06:55:13.475Z,0.60
2023-01-04T06:57:40.727Z,0.70
2023-01-04T07:00:09.101Z,0.57
2023-01-04T07:02:36.917Z,0.75
2023-01-04T07:05:04.870Z,0.70
2023-01-04T07:07:35.646Z,0.63
2023-01-04T07:10:09.101Z,0.88
2023-01-04T07:12:38.313Z,0.60
2023-01-04T07:15:39.220Z,0.80
2023-01-04T07:17:53.722Z,0.80
2023-01-04T07:20:21.128Z,0.98
2023-01-04T07:22:48.507Z,0.80
2023-01-04T07:25:16.729Z,0.85
2023-01-04T07:27:43.981Z,0.68
2023-01-04T07:30:11.913Z,0.77
2023-01-04T07:32:39.158Z,0.80
2023-01-04T07:35:06.726Z,0.70
2023-01-04T07:37:34.005Z,0.80
2023-01-04T07:40:01.252Z,0.88
2023-01-04T07:42:28.482Z,0.77
2023-01-04T07:44:55.837Z,0.70
2023-01-04T07:47:23.123Z,0.73
2023-01-04T07:49:50.409Z,0.85
2023-01-04T07:52:17.718Z,0.70
2023-01-04T07:54:44.995Z,0.63
2023-01-04T07:57:12.313Z,1.08
2023-01-04T07:59:39.601Z,0.70
2023-01-04T08:02:09.893Z,0.80
2023-01-04T08:04:37.278Z,0.68
2023-01-04T08:07:04.686Z,0.60
2023-01-04T08:09:31.969Z,0.80
2023-01-04T08:11:59.261Z,0.90
2023-01-04T08:14:26.492Z,0.70
2023-01-04T08:16:53.759Z,0.80
2023-01-04T08:19:21.729Z,0.95
2023-01-04T08:21:49.146Z,0.93
2023-01-04T08:24:18.190Z,0.82
2023-01-04T08:26:46.083Z,0.70
2023-01-04T08:29:13.765Z,0.80
2023-01-04T08:31:41.594Z,1.33
2023-01-04T08:34:09.915Z,0.70
2023-01-04T08:36:46.923Z,0.70
2023-01-04T08:39:14.339Z,1.08
2023-01-04T08:42:05.126Z,0.68
2023-01-04T08:44:38.403Z,0.80
2023-01-04T08:47:06.064Z,0.75
2023-01-04T08:49:33.530Z,0.70
2023-01-04T08:52:00.870Z,0.80
2023-01-04T08:54:28.122Z,0.85
2023-01-04T08:56:55.448Z,0.73
2023-01-04T08:59:22.668Z,0.70
2023-01-04T09:01:50.140Z,0.93
2023-01-04T09:04:17.593Z,0.98
2023-01-04T09:06:44.947Z,0.90
2023-01-04T09:09:12.267Z,0.80
2023-01-04T09:11:39.602Z,0.80
2023-01-04T09:14:09.472Z,0.90
2023-01-04T09:16:38.211Z,1.33
2023-01-04T09:19:06.473Z,1.17
2023-01-04T09:21:34.324Z,0.70
2023-01-04T09:24:01.765Z,1.00
2023-01-04T09:26:29.024Z,0.95
2023-01-04T09:28:57.019Z,0.95
2023-01-04T09:31:26.805Z,0.70
2023-01-04T09:36:44.268Z,0.80
2023-01-04T09:39:20.863Z,0.90
2023-01-04T09:42:05.447Z,0.70
2023-01-04T09:47:39.892Z,0.80
2023-01-04T09:50:15.116Z,1.00
2023-01-04T09:53:07.334Z,1.00
2023-01-04T09:55:48.105Z,0.90
2023-01-04T09:58:30.834Z,0.95
2023-01-04T10:01:21.266Z,0.70
2023-01-04T10:04:06.447Z,0.93
2023-01-04T10:09:04.555Z,0.60
2023-01-04T10:12:02.973Z,0.75
2023-01-04T10:15:02.586Z,0.82
2023-01-04T10:23:57.356Z,0.82
2023-01-04T10:26:38.085Z,1.67
2023-01-04T10:29:34.634Z,1.00
2023-01-04T10:32:11.731Z,0.63
2023-01-04T10:34:47.729Z,0.90
2023-01-04T10:37:17.717Z,0.90
2023-01-04T10:39:45.994Z,0.60
2023-01-04T10:42:30.385Z,0.73
2023-01-04T10:45:33.383Z,0.90
2023-01-04T10:48:18.825Z,1.20
2023-01-04T10:50:58.292Z,0.98
2023-01-04T10:54:31.907Z,0.90
2023-01-04T10:57:35.316Z,0.82
2023-01-04T11:00:29.977Z,1.10
2023-01-04T11:03:16.233Z,1.25
2023-01-04T11:05:59.087Z,1.08
2023-01-04T11:08:47.651Z,1.00
2023-01-04T11:11:38.524Z,1.38
2023-01-04T11:14:05.991Z,1.38
2023-01-04T11:16:33.432Z,1.13
2023-01-04T11:19:02.010Z,0.80
2023-01-04T11:21:36.179Z,1.10
2023-01-04T11:24:30.984Z,1.20
2023-01-04T11:26:56.579Z,1.23
2023-01-04T11:29:49.802Z,1.15
2023-01-04T11:32:35.887Z,1.00
2023-01-04T11:35:03.367Z,1.40
2023-01-04T11:37:33.543Z,0.80
2023-01-04T11:40:25.500Z,1.25
2023-01-04T11:43:20.236Z,1.88
2023-01-04T11:46:16.648Z,1.05
2023-01-04T11:48:45.789Z,1.20
2023-01-04T11:51:36.809Z,1.00
2023-01-04T11:54:26.317Z,1.38
2023-01-04T11:57:21.565Z,1.10
2023-01-04T12:00:14.189Z,1.00
2023-01-04T12:05:31.738Z,1.30
2023-01-04T12:07:59.762Z,1.50
2023-01-04T12:10:28.319Z,1.30
2023-01-04T12:12:59.611Z,1.25
2023-01-04T12:15:53.113Z,1.10
2023-01-04T12:18:26.349Z,1.02
2023-01-04T12:20:53.659Z,1.20
2023-01-04T12:23:20.930Z,1.10
2023-01-04T12:25:51.522Z,0.90
2023-01-04T12:28:42.734Z,0.90
2023-01-04T12:31:19.853Z,0.95
2023-01-04T12:33:59.814Z,1.08
2023-01-04T12:36:39.074Z,0.85
2023-01-04T12:39:29.383Z,1.00
2023-01-04T12:42:03.587Z,0.95
2023-01-04T12:44:37.108Z,1.00
2023-01-04T12:47:41.524Z,0.80
2023-01-04T12:50:11.879Z,0.90
2023-01-04T12:55:44.902Z,0.88
2023-01-04T12:59:27.030Z,0.70
2023-01-04T13:02:15.585Z,1.00
2023-01-04T13:04:43.574Z,1.15
2023-01-04T13:07:19.669Z,1.25
2023-01-04T13:10:26.088Z,1.10
2023-01-04T13:13:02.459Z,1.35
2023-01-04T13:15:38.186Z,1.10
2023-01-04T13:18:35.162Z,1.50
2023-01-04T13:21:09.998Z,1.20
2023-01-04T13:23:38.869Z,1.40
2023-01-04T13:26:36.870Z,1.58
2023-01-04T13:29:15.891Z,1.30
2023-01-04T13:31:48.729Z,1.00
2023-01-04T13:34:40.467Z,1.10
2023-01-04T13:37:10.751Z,1.13
2023-01-04T13:39:42.779Z,1.13
2023-01-04T13:42:40.168Z,0.80
2023-01-04T13:45:28.662Z,1.13
2023-01-04T13:47:59.620Z,1.00
2023-01-04T13:50:32.152Z,1.08
2023-01-04T13:53:06.986Z,0.90
2023-01-04T13:55:38.116Z,1.23
2023-01-04T13:58:15.450Z,1.17
2023-01-04T14:00:46.695Z,1.00
2023-01-04T14:03:21.099Z,1.00
2023-01-04T14:05:50.402Z,1.20
2023-01-04T14:08:40.741Z,1.27
2023-01-04T14:11:40.247Z,1.42
2023-01-04T14:14:23.683Z,1.20
2023-01-04T14:16:52.612Z,1.23
2023-01-04T14:19:46.139Z,1.23
2023-01-04T14:22:34.656Z,1.20
2023-01-04T14:25:31.130Z,1.10
2023-01-04T14:28:24.791Z,1.00
2023-01-04T14:31:12.119Z,1.10
2023-01-04T14:33:45.921Z,0.80
2023-01-04T14:36:19.800Z,0.88
2023-01-04T14:39:08.152Z,0.80
2023-01-04T14:41:42.118Z,1.10
2023-01-04T14:44:24.603Z,1.10
2023-01-04T14:46:55.151Z,1.58
2023-01-04T14:49:23.230Z,1.08
2023-01-04T14:51:53.679Z,1.27
2023-01-04T14:54:24.903Z,1.30
2023-01-04T14:56:57.736Z,1.00
2023-01-04T14:59:26.477Z,1.10
2023-01-04T15:01:55.369Z,1.27
2023-01-04T15:04:23.507Z,1.63
2023-01-04T15:06:59.929Z,1.50
2023-01-04T15:09:28.516Z,1.70
2023-01-04T15:11:55.812Z,1.08
2023-01-04T15:14:23.542Z,1.20
2023-01-04T15:16:51.025Z,1.30
2023-01-04T15:19:18.279Z,1.08
2023-01-04T15:21:45.621Z,1.98
2023-01-04T15:24:12.891Z,1.50
2023-01-04T15:26:40.538Z,1.38
2023-01-04T15:29:08.520Z,1.65
2023-01-04T15:31:39.708Z,1.42
2023-01-04T15:34:09.367Z,1.25
2023-01-04T15:36:39.245Z,1.08
2023-01-04T15:39:07.547Z,1.90
2023-01-04T15:41:53.527Z,1.50
2023-01-04T15:44:20.812Z,1.77
2023-01-04T15:46:48.204Z,1.90
2023-01-04T15:49:17.940Z,1.40
2023-01-04T15:51:46.173Z,2.50
2023-01-04T15:54:13.954Z,2.25
2023-01-04T15:56:41.281Z,1.27
2023-01-04T15:59:08.591Z,1.85
2023-01-04T16:01:36.072Z,2.95
2023-01-04T16:04:06.518Z,1.92
2023-01-04T16:06:33.905Z,1.27
2023-01-04T16:09:01.835Z,1.73
2023-01-04T16:11:29.141Z,1.65
2023-01-04T16:13:56.485Z,1.65
2023-01-04T16:16:27.665Z,1.90
2023-01-04T16:18:56.896Z,1.20
2023-01-04T16:21:29.720Z,1.55
2023-01-04T16:24:05.593Z,1.20
2023-01-04T16:26:40.315Z,1.50
2023-01-04T16:29:07.590Z,1.20
2023-01-04T16:31:36.972Z,1.50
2023-01-04T16:34:04.777Z,1.70
2023-01-04T16:36:32.048Z,1.55
2023-01-04T16:39:01.260Z,1.50
2023-01-04T16:41:28.536Z,1.13
2023-01-04T16:43:58.802Z,1.65
2023-01-04T16:46:33.458Z,0.95
2023-01-04T16:51:39.419Z,1.10
2023-01-04T16:54:12.435Z,0.82
2023-01-04T16:56:40.574Z,2.15
2023-01-04T16:59:10.134Z,2.60
2023-01-04T17:01:44.148Z,2.03
2023-01-04T17:04:15.328Z,1.65
2023-01-04T17:06:44.865Z,2.10
2023-01-04T17:09:18.231Z,1.90
2023-01-04T17:15:00.787Z,1.92
2023-01-04T17:17:34.577Z,2.08
2023-01-04T17:20:02.105Z,1.85
2023-01-04T17:22:34.083Z,2.20
2023-01-04T17:25:02.393Z,2.60
2023-01-04T17:27:29.651Z,2.45
2023-01-04T17:29:56.907Z,2.47
2023-01-04T17:32:24.272Z,3.22
2023-01-04T17:34:51.846Z,2.58
2023-01-04T17:37:19.196Z,2.42
2023-01-04T17:39:46.491Z,2.45
2023-01-04T17:42:13.732Z,3.10
2023-01-04T17:44:41.030Z,2.50
2023-01-04T17:47:08.398Z,2.80
2023-01-04T17:49:35.743Z,2.10
2023-01-04T17:52:03.016Z,2.88
2023-01-04T17:54:30.303Z,3.38
2023-01-04T17:56:57.885Z,2.38
2023-01-04T17:59:25.264Z,2.90
2023-01-04T18:01:52.703Z,3.33
2023-01-04T18:04:20.926Z,3.33
2023-01-04T18:06:48.265Z,4.13
2023-01-04T18:09:20.152Z,4.50
2023-01-04T18:11:50.848Z,3.25
2023-01-04T18:14:18.345Z,3.67
2023-01-04T18:16:58.447Z,5.07
2023-01-04T18:19:28.765Z,4.20
2023-01-04T18:21:56.685Z,3.75
2023-01-04T18:24:39.926Z,4.60
2023-01-04T18:27:26.417Z,4.55
2023-01-04T18:29:55.839Z,4.68
2023-01-04T18:32:24.895Z,4.45
2023-01-04T18:34:52.478Z,3.67
2023-01-04T18:37:19.877Z,4.65
2023-01-04T18:39:48.477Z,4.00
2023-01-04T18:42:16.329Z,5.30
2023-01-04T18:44:48.809Z,4.18
2023-01-04T18:47:19.577Z,4.65
2023-01-04T18:49:47.256Z,4.10
2023-01-04T18:52:15.380Z,4.65
2023-01-04T18:54:43.754Z,3.88
2023-01-04T18:57:11.481Z,4.85
2023-01-04T18:59:39.156Z,6.55
2023-01-04T19:02:06.748Z,5.40
2023-01-04T19:04:36.249Z,6.15
2023-01-04T19:07:03.534Z,5.22
2023-01-04T19:09:30.980Z,5.45
2023-01-04T19:11:58.246Z,8.00
2023-01-04T19:14:25.689Z,6.07
2023-01-04T19:16:53.362Z,5.53
2023-01-04T19:19:20.933Z,5.85
2023-01-04T19:21:48.692Z,4.57
2023-01-04T19:24:16.085Z,4.65
2023-01-04T19:26:43.512Z,5.53
2023-01-04T19:29:11.459Z,4.57
2023-01-04T19:31:38.946Z,6.40
2023-01-04T19:34:08.922Z,4.88
2023-01-04T19:36:36.555Z,5.43
2023-01-04T19:39:07.679Z,6.80
2023-01-04T19:41:37.498Z,4.25
2023-01-04T19:44:07.863Z,4.65
2023-01-04T19:46:38.299Z,6.32
2023-01-04T19:49:12.472Z,4.05
2023-01-04T19:51:44.310Z,5.47
2023-01-04T19:54:11.719Z,4.90
2023-01-04T19:56:39.731Z,4.53
2023-01-04T19:59:07.169Z,6.85
2023-01-04T20:01:34.628Z,5.57
2023-01-04T20:04:02.282Z,6.97
2023-01-04T20:06:29.645Z,5.40
2023-01-04T20:08:56.947Z,5.47
2023-01-04T20:11:24.200Z,5.13
2023-01-04T20:13:52.133Z,4.95
2023-01-04T20:16:19.411Z,4.97
2023-01-04T20:18:46.819Z,4.80
2023-01-04T20:21:14.540Z,5.45
2023-01-04T20:23:41.935Z,6.20
2023-01-04T20:26:15.020Z,6.32
2023-01-04T20:28:44.047Z,5.45
2023-01-04T20:31:13.901Z,5.43
2023-01-04T20:33:41.298Z,4.55
2023-01-04T20:36:14.296Z,4.97
2023-01-04T20:38:43.265Z,5.07
2023-01-04T20:41:14.190Z,5.47
2023-01-04T20:43:41.481Z,4.78
2023-01-04T20:46:17.988Z,5.60
2023-01-04T20:48:46.339Z,5.38
2023-01-04T20:51:22.148Z,5.45
2023-01-04T20:53:50.102Z,5.50
2023-01-04T20:56:22.757Z,6.35
2023-01-04T20:58:51.372Z,6.03
2023-01-04T21:01:21.117Z,3.90
2023-01-04T21:03:48.923Z,6.15
2023-01-04T21:06:18.261Z,5.43
2023-01-04T21:08:46.050Z,4.15
2023-01-04T21:11:13.726Z,5.25
2023-01-04T21:13:41.816Z,4.00
2023-01-04T21:16:09.879Z,5.65
2023-01-04T21:18:37.648Z,4.95
2023-01-04T21:21:11.359Z,5.22
2023-01-04T21:23:40.468Z,5.03
2023-01-04T21:26:10.912Z,5.50
2023-01-04T21:28:38.217Z,5.53
2023-01-04T21:31:10.940Z,4.85
2023-01-04T21:33:39.055Z,4.80
2023-01-04T21:36:21.400Z,5.25
2023-01-04T21:38:53.280Z,5.20
2023-01-04T21:41:24.674Z,5.47
2023-01-04T21:43:54.388Z,5.10
2023-01-04T21:46:22.420Z,6.57
2023-01-04T21:48:54.663Z,5.10
2023-01-04T21:51:22.066Z,5.30
2023-01-04T21:53:49.375Z,5.90
2023-01-04T21:56:18.789Z,4.43
2023-01-04T21:58:46.641Z,4.68
2023-01-04T22:01:35.462Z,5.10
2023-01-04T22:04:03.996Z,5.57
2023-01-04T22:06:33.033Z,4.68
2023-01-04T22:09:00.346Z,6.47
2023-01-04T22:11:27.644Z,6.78
2023-01-04T22:13:55.935Z,7.18
2023-01-04T22:16:25.166Z,4.75
2023-01-04T22:18:52.574Z,6.60
2023-01-04T22:21:23.679Z,4.88
2023-01-04T22:23:51.557Z,5.75
2023-01-04T22:26:18.926Z,6.35
2023-01-04T22:28:46.544Z,5.72
2023-01-04T22:31:14.895Z,4.10
2023-01-04T22:33:43.027Z,5.80
2023-01-04T22:36:21.104Z,6.57
2023-01-04T22:38:50.877Z,4.43
2023-01-04T22:41:22.799Z,5.47
2023-01-04T22:44:00.215Z,5.22
2023-01-04T22:46:28.931Z,5.65
2023-01-04T22:48:56.844Z,5.32
2023-01-04T22:51:27.229Z,5.22
2023-01-04T22:53:56.727Z,5.38
2023-01-04T22:56:24.696Z,4.75
2023-01-04T22:58:55.386Z,4.55
2023-01-04T23:01:26.104Z,5.78
2023-01-04T23:03:54.937Z,5.30
2023-01-04T23:06:23.823Z,5.78
2023-01-04T23:09:02.035Z,4.70
2023-01-04T23:11:31.102Z,5.05
2023-01-04T23:13:59.142Z,5.45
2023-01-04T23:16:31.947Z,5.60
2023-01-04T23:19:01.616Z,5.23
2023-01-04T23:21:29.818Z,5.10
2023-01-04T23:23:57.215Z,4.95
2023-01-04T23:26:26.653Z,5.68
2023-01-04T23:28:54.127Z,5.55
2023-01-04T23:31:23.247Z,5.32
2023-01-04T23:33:54.048Z,5.43
2023-01-04T23:39:11.313Z,5.27
2023-01-04T23:41:45.438Z,5.38
2023-01-04T23:44:19.778Z,5.85
2023-01-04T23:46:58.884Z,5.47
2023-01-04T23:49:28.375Z,4.13
2023-01-04T23:51:55.861Z,5.90
2023-01-04T23:54:23.527Z,5.53
2023-01-04T23:56:51.369Z,6.35
